Time;durP1;ratioP1;P1;durP2;ratioP2;P2;SDS_P1;SDS_P2;PMS_P1;PMS_P2;Temp;Humidity;BMP_temperature;BMP_pressure;BME280_temperature;BME280_humidity;BME280_pressure;Samples;Min_cycle;Max_cycle;Signal;HPM_P1;HPM_P2
2021/09/06 00:02:11;;;;;;;7.85;6.20;;;;;21.30;102184.00;;;;5007160;28;20209;-76
2021/09/06 00:04:40;;;;;;;7.75;5.72;;;;;21.20;102180.00;;;;5008649;28;20204;-76
2021/09/06 00:07:07;;;;;;;7.68;5.75;;;;;21.20;102184.00;;;;5009426;28;20201;-76
2021/09/06 00:09:35;;;;;;;7.13;5.70;;;;;21.20;102180.00;;;;5004035;28;20208;-77
2021/09/06 00:12:04;;;;;;;7.97;5.55;;;;;21.20;102174.00;;;;5007030;28;20197;-76
2021/09/06 00:14:31;;;;;;;9.05;5.97;;;;;21.20;102185.00;;;;5007209;28;20193;-76
2021/09/06 00:16:58;;;;;;;6.85;5.22;;;;;21.10;102181.00;;;;5007065;28;20212;-77
2021/09/06 00:19:26;;;;;;;7.75;5.38;;;;;21.10;102176.00;;;;5007604;28;20228;-77
2021/09/06 00:21:54;;;;;;;8.13;5.78;;;;;21.10;102175.00;;;;5008009;28;20208;-77
2021/09/06 00:24:21;;;;;;;7.60;5.43;;;;;21.10;102170.00;;;;5008319;28;20224;-76
2021/09/06 00:26:48;;;;;;;12.32;6.43;;;;;21.00;102169.00;;;;5005130;28;20204;-78
2021/09/06 00:29:17;;;;;;;7.95;5.53;;;;;21.00;102167.00;;;;5006977;28;20205;-77
2021/09/06 00:31:44;;;;;;;8.85;6.20;;;;;21.00;102165.00;;;;5007322;28;20197;-77
2021/09/06 00:34:12;;;;;;;8.85;5.82;;;;;21.00;102164.00;;;;5008439;28;20231;-77
2021/09/06 00:36:39;;;;;;;7.25;6.00;;;;;21.00;102161.00;;;;5007363;28;20212;-77
2021/09/06 00:39:06;;;;;;;10.48;5.88;;;;;21.00;102157.00;;;;5006710;28;20236;-77
2021/09/06 00:41:34;;;;;;;8.77;6.00;;;;;20.90;102162.00;;;;5007499;28;20209;-78
2021/09/06 00:44:02;;;;;;;7.38;4.93;;;;;20.90;102166.00;;;;5008522;28;20208;-77
2021/09/06 00:46:31;;;;;;;7.72;5.57;;;;;20.90;102168.00;;;;5008080;28;20236;-78
2021/09/06 00:48:58;;;;;;;8.38;5.43;;;;;20.90;102170.00;;;;5007497;28;20208;-78
2021/09/06 00:51:25;;;;;;;8.27;5.88;;;;;20.80;102166.00;;;;5008161;28;20200;-77
2021/09/06 00:53:53;;;;;;;7.32;5.35;;;;;20.80;102174.00;;;;5010757;28;20285;-78
2021/09/06 00:56:20;;;;;;;8.50;5.70;;;;;20.80;102171.00;;;;5011925;28;20205;-77
2021/09/06 00:58:49;;;;;;;7.55;5.63;;;;;20.80;102175.00;;;;5011591;28;20228;-77
2021/09/06 01:01:17;;;;;;;9.30;6.30;;;;;20.70;102173.00;;;;5012376;28;20212;-77
2021/09/06 01:03:45;;;;;;;7.80;6.00;;;;;20.70;102173.00;;;;5010969;28;20200;-78
2021/09/06 01:06:12;;;;;;;6.50;5.30;;;;;20.70;102173.00;;;;5011831;28;20201;-77
2021/09/06 01:08:40;;;;;;;7.57;5.75;;;;;20.70;102177.00;;;;5012131;28;20212;-77
2021/09/06 01:11:07;;;;;;;8.23;5.93;;;;;20.70;102174.00;;;;5008364;28;20201;-77
2021/09/06 01:13:34;;;;;;;8.85;5.95;;;;;20.70;102175.00;;;;5008291;28;20254;-77
2021/09/06 01:16:02;;;;;;;8.00;5.88;;;;;20.70;102180.00;;;;5010383;28;20193;-77
2021/09/06 01:18:29;;;;;;;8.57;5.95;;;;;20.60;102180.00;;;;5009604;28;20225;-77
2021/09/06 01:20:57;;;;;;;7.43;5.75;;;;;20.60;102177.00;;;;5010860;28;20211;-77
2021/09/06 01:23:25;;;;;;;7.07;5.32;;;;;20.60;102182.00;;;;5011287;28;20224;-78
2021/09/06 01:25:53;;;;;;;9.75;6.35;;;;;20.60;102172.00;;;;5011145;28;20193;-77
2021/09/06 01:28:22;;;;;;;7.45;5.72;;;;;20.60;102178.00;;;;4995285;28;20260;-77
2021/09/06 01:30:49;;;;;;;10.85;6.00;;;;;20.60;102170.00;;;;4991532;28;20732;-78
2021/09/06 01:33:17;;;;;;;8.18;6.25;;;;;20.60;102166.00;;;;5005793;28;20205;-78
2021/09/06 01:35:44;;;;;;;7.97;5.45;;;;;20.50;102169.00;;;;5010996;28;20196;-78
2021/09/06 01:38:11;;;;;;;7.28;5.68;;;;;20.50;102171.00;;;;5011191;28;20201;-78
2021/09/06 01:40:38;;;;;;;10.07;6.40;;;;;20.50;102169.00;;;;5010797;28;20208;-78
2021/09/06 01:43:07;;;;;;;9.18;6.68;;;;;20.50;102164.00;;;;5010417;28;20220;-78
2021/09/06 01:45:34;;;;;;;7.70;6.10;;;;;20.50;102168.00;;;;5011459;28;20205;-78
2021/09/06 01:48:02;;;;;;;9.82;6.90;;;;;20.40;102166.00;;;;5010893;28;20197;-77
2021/09/06 01:50:29;;;;;;;9.52;6.65;;;;;20.40;102168.00;;;;5003668;28;20208;-78
2021/09/06 01:52:56;;;;;;;10.80;7.05;;;;;20.40;102167.00;;;;5009588;28;20540;-78
2021/09/06 01:55:24;;;;;;;8.07;5.70;;;;;20.40;102173.00;;;;5009328;28;20200;-78
2021/09/06 01:57:51;;;;;;;11.18;6.28;;;;;20.40;102173.00;;;;5010435;28;20213;-78
2021/09/06 02:00:20;;;;;;;8.68;6.00;;;;;20.40;102177.00;;;;5011039;28;20232;-78
2021/09/06 02:02:47;;;;;;;11.57;6.38;;;;;20.40;102170.00;;;;5010498;28;20223;-78
2021/09/06 02:05:14;;;;;;;9.18;6.53;;;;;20.40;102165.00;;;;5010136;28;20205;-78
2021/09/06 02:07:42;;;;;;;8.90;6.05;;;;;20.30;102171.00;;;;5008172;28;20890;-78
2021/09/06 02:10:10;;;;;;;9.20;5.97;;;;;20.30;102168.00;;;;5010411;28;20217;-77
2021/09/06 02:12:37;;;;;;;8.25;5.70;;;;;20.30;102170.00;;;;5010117;28;20231;-77
2021/09/06 02:15:05;;;;;;;8.90;6.55;;;;;20.30;102168.00;;;;5010506;28;20201;-78
2021/09/06 02:17:33;;;;;;;12.40;6.32;;;;;20.30;102167.00;;;;5010031;28;20679;-79
2021/09/06 02:20:00;;;;;;;8.48;6.43;;;;;20.30;102167.00;;;;5010129;28;20237;-77
2021/09/06 02:22:28;;;;;;;9.93;5.95;;;;;20.20;102169.00;;;;5009679;28;20216;-78
2021/09/06 02:24:55;;;;;;;8.95;6.30;;;;;20.30;102173.00;;;;5010390;28;20193;-78
2021/09/06 02:27:22;;;;;;;9.48;6.60;;;;;20.20;102161.00;;;;5010601;28;20201;-78
2021/09/06 02:29:50;;;;;;;8.55;6.18;;;;;20.20;102164.00;;;;5010413;28;20229;-78
2021/09/06 02:32:17;;;;;;;9.25;6.80;;;;;20.20;102169.00;;;;5009640;28;20197;-78
2021/09/06 02:34:45;;;;;;;9.55;6.85;;;;;20.20;102155.00;;;;5010257;28;20224;-77
2021/09/06 02:37:13;;;;;;;9.15;6.82;;;;;20.20;102159.00;;;;5006527;28;20201;-78
2021/09/06 02:39:40;;;;;;;7.72;5.95;;;;;20.20;102159.00;;;;5009721;28;20244;-77
2021/09/06 02:42:07;;;;;;;8.35;6.32;;;;;20.20;102159.00;;;;5009421;28;20678;-78
2021/09/06 02:44:35;;;;;;;9.50;6.03;;;;;20.20;102165.00;;;;5010066;28;20201;-78
2021/09/06 02:47:02;;;;;;;9.90;7.03;;;;;20.20;102168.00;;;;5010103;28;20212;-78
2021/09/06 02:49:29;;;;;;;9.77;6.70;;;;;20.10;102176.00;;;;5010097;28;20217;-78
2021/09/06 02:51:58;;;;;;;7.50;5.65;;;;;20.10;102166.00;;;;5009015;28;20311;-78
2021/09/06 02:54:25;;;;;;;9.65;6.90;;;;;20.10;102170.00;;;;5010202;28;20204;-78
2021/09/06 02:56:52;;;;;;;8.02;5.90;;;;;20.10;102177.00;;;;5010102;28;20697;-78
2021/09/06 02:59:20;;;;;;;12.65;6.43;;;;;20.10;102177.00;;;;5010421;28;20217;-78
2021/09/06 03:01:47;;;;;;;9.10;5.72;;;;;20.10;102179.00;;;;5009453;28;20209;-78
2021/09/06 03:04:14;;;;;;;10.15;6.15;;;;;20.10;102168.00;;;;5010495;28;20201;-78
2021/09/06 03:06:41;;;;;;;10.85;6.78;;;;;20.00;102178.00;;;;5009348;28;20197;-78
2021/09/06 03:09:10;;;;;;;8.65;6.43;;;;;20.00;102183.00;;;;5010088;28;20197;-78
2021/09/06 03:11:38;;;;;;;9.10;6.60;;;;;20.00;102179.00;;;;5009765;28;20209;-78
2021/09/06 03:14:05;;;;;;;7.40;5.88;;;;;20.00;102178.00;;;;5010226;28;20201;-78
2021/09/06 03:16:33;;;;;;;9.43;7.05;;;;;20.00;102169.00;;;;5009691;28;20193;-78
2021/09/06 03:19:00;;;;;;;10.90;6.95;;;;;20.00;102168.00;;;;5009771;28;20630;-78
2021/09/06 03:21:27;;;;;;;9.35;6.20;;;;;20.00;102173.00;;;;5009895;28;20205;-77
2021/09/06 03:23:54;;;;;;;8.60;6.20;;;;;20.00;102171.00;;;;5009576;28;20217;-77
2021/09/06 03:26:23;;;;;;;9.20;6.32;;;;;20.00;102166.00;;;;5006264;28;20198;-78
2021/09/06 03:28:51;;;;;;;9.25;6.47;;;;;19.90;102162.00;;;;4997731;28;20209;-78
2021/09/06 03:31:18;;;;;;;8.50;6.95;;;;;19.90;102154.00;;;;4998230;28;20198;-79
2021/09/06 03:33:45;;;;;;;9.98;7.18;;;;;19.90;102162.00;;;;5010199;28;20208;-78
2021/09/06 03:36:13;;;;;;;10.80;7.03;;;;;19.90;102156.00;;;;5006355;28;20201;-78
2021/09/06 03:38:50;;;;;;;9.68;6.95;;;;;19.90;102158.00;;;;5085320;28;20861;-78
2021/09/06 03:41:18;;;;;;;9.15;7.07;;;;;19.90;102157.00;;;;5083486;28;20663;-77
2021/09/06 03:43:45;;;;;;;12.38;6.85;;;;;19.90;102162.00;;;;5072729;28;20226;-77
2021/09/06 03:46:12;;;;;;;11.88;6.80;;;;;19.90;102156.00;;;;5065200;28;20252;-78
2021/09/06 03:48:39;;;;;;;12.88;6.93;;;;;19.90;102163.00;;;;5065568;28;20560;-78
2021/09/06 03:51:07;;;;;;;8.57;6.00;;;;;19.80;102166.00;;;;5075248;28;20296;-77
2021/09/06 03:53:34;;;;;;;11.02;6.78;;;;;19.80;102159.00;;;;5085554;28;20202;-77
2021/09/06 03:56:03;;;;;;;9.68;6.43;;;;;19.80;102154.00;;;;5085693;28;20198;-78
2021/09/06 03:58:30;;;;;;;9.20;6.85;;;;;19.80;102160.00;;;;5085556;28;20226;-77
2021/09/06 04:00:57;;;;;;;10.55;6.18;;;;;19.80;102160.00;;;;5067528;28;20204;-77
2021/09/06 04:03:24;;;;;;;10.57;6.40;;;;;19.80;102164.00;;;;5066309;28;21104;-77
2021/09/06 04:05:52;;;;;;;9.82;7.30;;;;;19.80;102160.00;;;;5076035;28;20201;-78
2021/09/06 04:08:19;;;;;;;8.93;6.47;;;;;19.70;102151.00;;;;5084211;28;20195;-78
2021/09/06 04:10:47;;;;;;;10.43;7.47;;;;;19.70;102155.00;;;;5078073;28;20210;-78
2021/09/06 04:13:15;;;;;;;10.85;6.85;;;;;19.70;102155.00;;;;5075687;28;20866;-78
2021/09/06 04:15:45;;;;;;;10.88;7.13;;;;;19.70;102159.00;;;;5085309;28;20194;-77
2021/09/06 04:18:12;;;;;;;7.47;6.00;;;;;19.70;102162.00;;;;5064892;28;20227;-77
2021/09/06 04:20:39;;;;;;;9.10;6.45;;;;;19.70;102157.00;;;;5074125;28;20194;-77
2021/09/06 04:23:06;;;;;;;10.85;7.07;;;;;19.60;102167.00;;;;5084890;28;20210;-78
2021/09/06 04:25:34;;;;;;;8.98;6.13;;;;;19.60;102164.00;;;;5075379;28;20851;-77
2021/09/06 04:28:01;;;;;;;11.38;6.60;;;;;19.60;102166.00;;;;5065581;28;20195;-77
2021/09/06 04:30:29;;;;;;;9.50;6.93;;;;;19.60;102167.00;;;;5067803;28;20195;-77
2021/09/06 04:32:57;;;;;;;8.65;6.38;;;;;19.60;102172.00;;;;5063684;28;20207;-77
2021/09/06 04:35:24;;;;;;;10.88;6.90;;;;;19.50;102169.00;;;;5064603;28;20202;-77
2021/09/06 04:37:51;;;;;;;8.20;6.78;;;;;19.50;102176.00;;;;5062966;28;20242;-78
2021/09/06 04:40:18;;;;;;;9.25;6.47;;;;;19.50;102172.00;;;;5066322;28;20203;-77
2021/09/06 04:42:46;;;;;;;9.57;6.72;;;;;19.50;102171.00;;;;5063024;28;20187;-78
2021/09/06 04:45:13;;;;;;;8.93;6.43;;;;;19.50;102177.00;;;;5064563;28;20218;-77
2021/09/06 04:47:42;;;;;;;8.38;6.88;;;;;19.40;102184.00;;;;5063894;28;20673;-78
2021/09/06 04:50:10;;;;;;;9.98;6.68;;;;;19.40;102184.00;;;;5047283;28;20200;-77
2021/09/06 04:52:37;;;;;;;8.77;6.55;;;;;19.40;102182.00;;;;5054463;28;20206;-78
2021/09/06 04:55:04;;;;;;;11.13;7.13;;;;;19.40;102188.00;;;;5049610;28;20191;-78
2021/09/06 04:57:32;;;;;;;8.68;6.65;;;;;19.40;102180.00;;;;5051610;28;20736;-77
2021/09/06 04:59:59;;;;;;;8.80;6.65;;;;;19.40;102188.00;;;;5062513;28;20203;-77
2021/09/06 05:02:27;;;;;;;10.80;6.88;;;;;19.40;102187.00;;;;5051587;28;20212;-77
2021/09/06 05:04:56;;;;;;;10.45;6.78;;;;;19.30;102190.00;;;;5051274;28;20210;-77
2021/09/06 05:07:23;;;;;;;8.88;6.53;;;;;19.40;102188.00;;;;5057975;28;20563;-77
2021/09/06 05:09:50;;;;;;;8.32;6.30;;;;;19.30;102189.00;;;;5051585;28;20203;-77
2021/09/06 05:12:17;;;;;;;8.35;6.18;;;;;19.30;102194.00;;;;5051972;28;20199;-78
2021/09/06 05:14:45;;;;;;;8.45;6.20;;;;;19.30;102199.00;;;;5051179;28;20226;-77
2021/09/06 05:17:12;;;;;;;9.13;6.57;;;;;19.30;102191.00;;;;5063917;28;20211;-78
2021/09/06 05:19:39;;;;;;;8.20;6.22;;;;;19.30;102202.00;;;;5064345;28;20207;-77
2021/09/06 05:22:08;;;;;;;8.68;5.78;;;;;19.30;102200.00;;;;5050607;28;20402;-77
2021/09/06 05:24:37;;;;;;;10.00;6.75;;;;;19.30;102203.00;;;;5051416;28;20207;-77
2021/09/06 05:27:04;;;;;;;9.65;6.60;;;;;19.30;102207.00;;;;5053276;28;20245;-77
2021/09/06 05:29:32;;;;;;;8.20;5.80;;;;;19.30;102199.00;;;;5050613;28;20222;-78
2021/09/06 05:31:59;;;;;;;9.15;6.40;;;;;19.40;102211.00;;;;5063201;28;20195;-78
2021/09/06 05:34:26;;;;;;;10.85;6.85;;;;;19.40;102210.00;;;;5059996;28;20199;-78
2021/09/06 05:36:53;;;;;;;12.82;7.15;;;;;19.40;102210.00;;;;5061326;28;20712;-77
2021/09/06 05:39:22;;;;;;;7.53;5.57;;;;;19.40;102217.00;;;;5065894;28;20226;-76
2021/09/06 05:41:50;;;;;;;8.43;6.10;;;;;19.40;102223.00;;;;5060938;28;20207;-75
2021/09/06 05:44:18;;;;;;;8.32;5.78;;;;;19.50;102220.00;;;;5050339;28;20188;-75
2021/09/06 05:46:45;;;;;;;8.35;6.50;;;;;19.50;102220.00;;;;5051168;28;20688;-76
2021/09/06 05:49:12;;;;;;;9.05;6.22;;;;;19.50;102234.00;;;;5049713;28;20568;-75
2021/09/06 05:51:39;;;;;;;10.40;6.90;;;;;19.50;102234.00;;;;5050042;28;20199;-75
2021/09/06 05:54:07;;;;;;;10.15;6.40;;;;;19.60;102240.00;;;;5050202;28;20222;-77
2021/09/06 05:56:35;;;;;;;9.00;6.35;;;;;19.60;102243.00;;;;5049058;28;20574;-77
2021/09/06 05:59:02;;;;;;;10.13;6.70;;;;;19.70;102242.00;;;;5050515;28;20578;-76
2021/09/06 06:01:30;;;;;;;10.02;6.43;;;;;19.70;102243.00;;;;5048945;28;20249;-77
2021/09/06 06:03:57;;;;;;;8.85;6.15;;;;;19.80;102238.00;;;;5054597;28;20222;-78
2021/09/06 06:06:24;;;;;;;9.45;7.38;;;;;19.80;102245.00;;;;5069901;28;20237;-78
2021/09/06 06:08:51;;;;;;;9.15;6.95;;;;;19.90;102237.00;;;;5067413;28;20195;-78
2021/09/06 06:11:19;;;;;;;11.25;7.20;;;;;20.00;102238.00;;;;5052673;28;20207;-78
2021/09/06 06:13:47;;;;;;;9.55;7.07;;;;;20.00;102244.00;;;;5048881;28;20218;-77
2021/09/06 06:16:14;;;;;;;10.00;7.32;;;;;20.10;102249.00;;;;5047762;28;20215;-78
2021/09/06 06:18:42;;;;;;;10.30;7.20;;;;;20.20;102249.00;;;;5048550;28;20230;-78
2021/09/06 06:21:09;;;;;;;11.82;7.20;;;;;20.20;102247.00;;;;5049664;28;20210;-78
2021/09/06 06:23:36;;;;;;;13.38;7.78;;;;;20.30;102254.00;;;;5049390;28;20234;-78
2021/09/06 06:26:04;;;;;;;10.93;7.78;;;;;20.40;102253.00;;;;5049194;28;20206;-78
2021/09/06 06:28:31;;;;;;;11.77;7.78;;;;;20.40;102265.00;;;;5049304;28;20689;-78
2021/09/06 06:30:59;;;;;;;11.82;7.80;;;;;20.50;102265.00;;;;5049311;28;20199;-78
2021/09/06 06:33:29;;;;;;;11.02;7.50;;;;;20.60;102276.00;;;;5062037;28;20264;-78
2021/09/06 06:35:57;;;;;;;11.02;6.68;;;;;20.70;102277.00;;;;5069544;28;20210;-78
2021/09/06 06:38:25;;;;;;;9.85;7.13;;;;;20.70;102269.00;;;;5069089;28;20241;-78
2021/09/06 06:40:52;;;;;;;9.60;7.38;;;;;20.80;102278.00;;;;5060053;28;20665;-78
2021/09/06 06:43:19;;;;;;;10.88;8.02;;;;;20.90;102274.00;;;;5065284;28;20210;-77
2021/09/06 06:45:46;;;;;;;11.60;8.05;;;;;21.00;102277.00;;;;5062522;28;20234;-78
2021/09/06 06:48:15;;;;;;;12.20;7.28;;;;;21.10;102278.00;;;;5049499;28;20204;-78
2021/09/06 06:50:42;;;;;;;12.07;9.02;;;;;21.20;102269.00;;;;5064080;28;20210;-78
2021/09/06 06:53:10;;;;;;;11.68;8.52;;;;;21.30;102278.00;;;;5069080;28;20202;-78
2021/09/06 06:55:37;;;;;;;13.23;9.05;;;;;21.30;102279.00;;;;5064880;28;20203;-79
2021/09/06 06:58:04;;;;;;;12.15;8.15;;;;;21.40;102281.00;;;;5068542;28;20254;-79
2021/09/06 07:00:32;;;;;;;12.63;8.43;;;;;21.50;102288.00;;;;5069321;28;20203;-79
2021/09/06 07:03:02;;;;;;;14.40;8.88;;;;;21.60;102290.00;;;;5056273;28;20203;-79
2021/09/06 07:05:31;;;;;;;11.27;9.00;;;;;21.70;102291.00;;;;5053426;28;20556;-79
2021/09/06 07:07:58;;;;;;;10.50;7.90;;;;;21.80;102288.00;;;;5068266;28;20202;-79
2021/09/06 07:10:25;;;;;;;10.70;8.00;;;;;21.90;102292.00;;;;5068789;28;20214;-77
2021/09/06 07:12:53;;;;;;;12.45;8.52;;;;;22.00;102289.00;;;;5068540;28;20239;-77
2021/09/06 07:15:20;;;;;;;12.18;9.57;;;;;22.10;102287.00;;;;5069110;28;20265;-77
2021/09/06 07:17:47;;;;;;;10.52;7.50;;;;;22.20;102290.00;;;;5068521;28;20205;-76
2021/09/06 07:20:14;;;;;;;9.85;7.03;;;;;22.30;102291.00;;;;5068809;28;20325;-77
2021/09/06 07:22:43;;;;;;;13.43;8.75;;;;;22.40;102292.00;;;;5067919;28;20214;-76
2021/09/06 07:25:11;;;;;;;14.00;8.90;;;;;22.50;102289.00;;;;5047985;28;20199;-78
2021/09/06 07:27:38;;;;;;;11.98;8.35;;;;;22.60;102297.00;;;;5048398;28;20673;-76
2021/09/06 07:30:07;;;;;;;13.93;9.10;;;;;22.70;102304.00;;;;5048433;28;20203;-77
2021/09/06 07:32:35;;;;;;;12.65;8.20;;;;;22.80;102295.00;;;;5047052;28;20665;-77
2021/09/06 07:35:02;;;;;;;12.77;7.43;;;;;22.90;102296.00;;;;5048448;28;20203;-79
2021/09/06 07:37:30;;;;;;;14.13;9.45;;;;;23.00;102306.00;;;;5047998;28;20226;-77
2021/09/06 07:39:59;;;;;;;10.15;7.00;;;;;23.10;102309.00;;;;5051141;28;20226;-77
2021/09/06 07:42:26;;;;;;;11.45;8.30;;;;;23.30;102310.00;;;;5047156;28;20199;-77
2021/09/06 07:44:53;;;;;;;12.73;8.57;;;;;23.40;102303.00;;;;5046806;28;20231;-77
2021/09/06 07:47:21;;;;;;;12.85;7.75;;;;;23.50;102312.00;;;;5047113;28;20281;-77
2021/09/06 07:49:49;;;;;;;11.07;8.00;;;;;23.60;102311.00;;;;5049145;28;20200;-76
2021/09/06 07:52:16;;;;;;;10.88;8.10;;;;;23.70;102316.00;;;;5054059;28;20201;-77
2021/09/06 07:54:43;;;;;;;10.85;7.93;;;;;23.80;102316.00;;;;5048639;28;20557;-77
2021/09/06 07:57:12;;;;;;;12.93;8.35;;;;;23.90;102326.00;;;;5049434;28;20224;-76
2021/09/06 07:59:39;;;;;;;9.13;7.32;;;;;24.00;102326.00;;;;5043882;28;20931;-76
2021/09/06 08:02:07;;;;;;;9.77;7.78;;;;;24.10;102323.00;;;;5048282;28;20638;-76
2021/09/06 08:04:34;;;;;;;12.88;8.57;;;;;24.20;102336.00;;;;5053062;28;20203;-77
2021/09/06 08:07:01;;;;;;;9.68;7.53;;;;;24.30;102334.00;;;;5060208;28;20205;-76
2021/09/06 08:09:28;;;;;;;11.40;7.78;;;;;24.40;102334.00;;;;5068103;28;20210;-78
2021/09/06 08:11:56;;;;;;;14.30;8.77;;;;;24.50;102341.00;;;;5049134;28;20199;-78
2021/09/06 08:14:27;;;;;;;12.45;7.97;;;;;24.50;102343.00;;;;5052924;28;20290;-78
2021/09/06 08:16:54;;;;;;;9.63;8.02;;;;;24.60;102339.00;;;;5050474;28;20253;-79
2021/09/06 08:19:22;;;;;;;9.38;7.55;;;;;24.70;102337.00;;;;5048461;28;20250;-78
2021/09/06 08:21:49;;;;;;;10.73;7.53;;;;;24.80;102335.00;;;;5048469;28;20203;-77
2021/09/06 08:24:16;;;;;;;9.00;6.93;;;;;24.90;102340.00;;;;5069434;28;20226;-77
2021/09/06 08:26:44;;;;;;;11.35;8.32;;;;;25.00;102340.00;;;;5054735;28;20207;-77
2021/09/06 08:29:11;;;;;;;9.77;6.88;;;;;25.10;102343.00;;;;5054342;28;20191;-78
2021/09/06 08:31:39;;;;;;;9.70;7.30;;;;;25.20;102350.00;;;;5064740;28;20203;-78
2021/09/06 08:34:07;;;;;;;9.30;7.53;;;;;25.30;102348.00;;;;5051209;28;20216;-78
2021/09/06 08:36:34;;;;;;;8.98;6.93;;;;;25.40;102350.00;;;;5055848;28;20195;-78
2021/09/06 08:39:01;;;;;;;9.68;6.95;;;;;25.50;102343.00;;;;5057434;28;20227;-78
2021/09/06 08:41:28;;;;;;;10.65;6.90;;;;;25.60;102348.00;;;;5059017;28;20543;-77
2021/09/06 08:43:56;;;;;;;9.15;6.15;;;;;25.70;102350.00;;;;5051749;28;20245;-77
2021/09/06 08:46:23;;;;;;;9.02;6.72;;;;;25.80;102350.00;;;;5050998;28;20192;-78
2021/09/06 08:48:52;;;;;;;10.63;6.47;;;;;25.80;102350.00;;;;5060115;28;20231;-77
2021/09/06 08:51:19;;;;;;;8.88;6.22;;;;;26.00;102352.00;;;;5061370;28;20203;-77
2021/09/06 08:53:47;;;;;;;6.32;5.28;;;;;26.10;102356.00;;;;5052635;28;20203;-78
2021/09/06 08:56:14;;;;;;;7.28;6.03;;;;;26.20;102366.00;;;;5051064;28;20654;-76
2021/09/06 08:58:42;;;;;;;8.98;6.80;;;;;26.30;102375.00;;;;5067003;28;20223;-76
2021/09/06 09:01:09;;;;;;;8.63;6.43;;;;;26.40;102376.00;;;;5071537;28;20213;-76
2021/09/06 09:03:36;;;;;;;9.07;6.55;;;;;26.50;102374.00;;;;5071133;28;20218;-75
2021/09/06 09:06:06;;;;;;;7.90;5.18;;;;;26.60;102375.00;;;;5054741;28;20203;-76
2021/09/06 09:08:34;;;;;;;9.95;5.75;;;;;26.70;102374.00;;;;5059922;28;20207;-75
2021/09/06 09:11:03;;;;;;;8.20;5.35;;;;;26.90;102385.00;;;;5055076;28;20207;-75
2021/09/06 09:13:31;;;;;;;7.95;6.25;;;;;27.00;102386.00;;;;5050540;28;20202;-75
2021/09/06 09:16:00;;;;;;;8.80;5.55;;;;;27.10;102383.00;;;;5051571;28;20206;-75
2021/09/06 09:18:29;;;;;;;7.68;5.00;;;;;27.20;102383.00;;;;5050630;28;20842;-76
2021/09/06 09:21:01;;;;;;;8.48;5.63;;;;;27.20;102375.00;;;;5068916;28;20206;-75
2021/09/06 09:23:42;;;;;;;7.57;5.65;;;;;27.30;102382.00;;;;5069377;28;20223;-75
2021/09/06 09:26:09;;;;;;;8.65;5.80;;;;;27.50;102383.00;;;;5071049;28;20630;-75
2021/09/06 09:28:39;;;;;;;7.63;5.65;;;;;27.60;102383.00;;;;5059917;28;20191;-75
2021/09/06 09:31:08;;;;;;;10.27;6.40;;;;;27.70;102392.00;;;;5050384;28;20200;-75
2021/09/06 09:33:43;;;;;;;7.40;5.43;;;;;27.70;102389.00;;;;5050245;28;20195;-75
2021/09/06 09:36:11;;;;;;;6.25;4.68;;;;;27.90;102389.00;;;;5050244;28;20206;-75
2021/09/06 09:38:40;;;;;;;11.13;5.75;;;;;28.00;102389.00;;;;5049643;28;20231;-75
2021/09/06 09:41:15;;;;;;;7.18;5.13;;;;;28.10;102389.00;;;;5054587;28;20227;-74
2021/09/06 09:43:42;;;;;;;7.90;5.88;;;;;28.20;102386.00;;;;5060170;28;20199;-75
2021/09/06 09:46:10;;;;;;;8.93;5.13;;;;;28.40;102390.00;;;;5061776;28;20199;-75
2021/09/06 09:48:37;;;;;;;7.93;5.60;;;;;28.50;102389.00;;;;5067964;28;20195;-75
2021/09/06 09:51:05;;;;;;;7.07;5.38;;;;;28.60;102392.00;;;;5062401;28;20203;-74
2021/09/06 09:53:34;;;;;;;6.47;4.78;;;;;28.70;102394.00;;;;5067282;28;20195;-75
2021/09/06 09:56:02;;;;;;;6.25;4.57;;;;;28.80;102391.00;;;;5047538;28;20667;-76
2021/09/06 09:58:30;;;;;;;8.32;5.18;;;;;28.90;102395.00;;;;5061315;28;20203;-74
2021/09/06 10:00:58;;;;;;;6.00;4.65;;;;;29.00;102393.00;;;;5054562;28;20195;-75
2021/09/06 10:03:27;;;;;;;6.22;5.00;;;;;29.10;102395.00;;;;5066871;28;20282;-74
2021/09/06 10:05:55;;;;;;;5.53;4.85;;;;;29.20;102392.00;;;;5060246;28;20196;-75
2021/09/06 10:08:22;;;;;;;8.43;5.20;;;;;29.30;102391.00;;;;5051625;28;21283;-75
2021/09/06 10:10:50;;;;;;;7.95;4.65;;;;;29.40;102383.00;;;;5049980;28;20204;-75
2021/09/06 10:13:19;;;;;;;7.97;4.97;;;;;29.50;102381.00;;;;5050493;28;20680;-75
2021/09/06 10:16:00;;;;;;;7.35;4.78;;;;;29.50;102374.00;;;;5047730;28;21036;-75
2021/09/06 10:18:36;;;;;;;5.63;4.38;;;;;29.60;102369.00;;;;5047747;28;20642;-75
2021/09/06 10:21:12;;;;;;;8.43;5.15;;;;;29.60;102367.00;;;;5047928;28;20195;-75
2021/09/06 10:23:44;;;;;;;5.85;4.18;;;;;29.60;102359.00;;;;5050621;28;20211;-75
2021/09/06 10:26:11;;;;;;;5.97;4.13;;;;;29.70;102359.00;;;;5055853;28;20674;-75
2021/09/06 10:28:40;;;;;;;6.43;4.82;;;;;29.70;102360.00;;;;5053250;28;20211;-75
2021/09/06 10:31:18;;;;;;;5.38;4.45;;;;;29.70;102356.00;;;;5056091;28;20207;-76
2021/09/06 10:33:50;;;;;;;5.07;4.00;;;;;29.80;102350.00;;;;5058628;28;20197;-76
2021/09/06 10:36:20;;;;;;;7.53;4.43;;;;;29.80;102346.00;;;;5064435;28;20278;-76
2021/09/06 10:38:49;;;;;;;10.80;4.70;;;;;29.80;102351.00;;;;5055811;28;20200;-76
2021/09/06 10:41:20;;;;;;;9.48;5.47;;;;;29.80;102354.00;;;;5052768;28;20576;-76
2021/09/06 10:43:50;;;;;;;6.07;4.63;;;;;29.80;102353.00;;;;5048631;28;20393;-76
2021/09/06 10:46:18;;;;;;;4.78;4.00;;;;;29.90;102355.00;;;;5048503;28;20200;-76
2021/09/06 10:48:46;;;;;;;6.35;4.35;;;;;30.00;102364.00;;;;5049935;28;20214;-78
2021/09/06 10:51:13;;;;;;;4.93;4.40;;;;;30.00;102358.00;;;;5049234;28;20199;-78
2021/09/06 10:53:41;;;;;;;5.32;4.40;;;;;30.10;102359.00;;;;5052788;28;20200;-78
2021/09/06 10:56:09;;;;;;;6.25;4.05;;;;;30.10;102354.00;;;;5048434;28;20290;-78
2021/09/06 10:58:36;;;;;;;7.70;4.68;;;;;30.10;102362.00;;;;5048933;28;20214;-78
2021/09/06 11:01:08;;;;;;;8.98;4.38;;;;;30.10;102360.00;;;;5048428;28;20231;-78
2021/09/06 11:03:36;;;;;;;5.50;4.20;;;;;30.10;102360.00;;;;5048603;28;20207;-78
2021/09/06 11:06:04;;;;;;;8.13;4.53;;;;;30.10;102357.00;;;;5048189;28;20707;-78
2021/09/06 11:08:34;;;;;;;5.28;3.95;;;;;30.00;102361.00;;;;5047622;28;20195;-78
2021/09/06 11:11:03;;;;;;;6.28;4.60;;;;;29.90;102363.00;;;;5048318;28;20202;-78
2021/09/06 11:13:35;;;;;;;5.95;4.18;;;;;29.80;102368.00;;;;5048451;28;20199;-78
2021/09/06 11:16:04;;;;;;;7.57;5.40;;;;;29.80;102363.00;;;;5047515;28;20213;-78
2021/09/06 11:18:32;;;;;;;8.38;4.35;;;;;29.70;102366.00;;;;5048027;28;20208;-78
2021/09/06 11:21:00;;;;;;;9.10;5.43;;;;;29.70;102360.00;;;;5048374;28;20227;-79
2021/09/06 11:23:33;;;;;;;6.43;4.97;;;;;29.70;102360.00;;;;5051003;28;20208;-79
2021/09/06 11:26:01;;;;;;;5.57;4.45;;;;;29.80;102352.00;;;;5063320;28;20238;-79
2021/09/06 11:28:28;;;;;;;8.85;5.28;;;;;29.80;102353.00;;;;5067962;28;20206;-78
2021/09/06 11:30:56;;;;;;;7.15;4.78;;;;;29.80;102354.00;;;;5067974;28;20207;-79
2021/09/06 11:33:28;;;;;;;9.60;5.15;;;;;29.80;102359.00;;;;5048122;28;20207;-78
2021/09/06 11:35:56;;;;;;;7.82;4.65;;;;;29.90;102352.00;;;;5047821;28;20200;-78
2021/09/06 11:38:23;;;;;;;7.32;4.75;;;;;29.90;102362.00;;;;5052423;28;20249;-79
2021/09/06 11:40:53;;;;;;;6.97;5.03;;;;;29.90;102354.00;;;;5055030;28;20223;-78
2021/09/06 11:43:23;;;;;;;5.93;4.53;;;;;30.00;102358.00;;;;5047815;28;20303;-79
2021/09/06 11:45:58;;;;;;;4.75;4.18;;;;;30.00;102354.00;;;;5048045;28;20203;-78
2021/09/06 11:48:26;;;;;;;7.55;5.75;;;;;30.10;102359.00;;;;5047772;28;20203;-79
2021/09/06 11:50:54;;;;;;;5.95;4.78;;;;;30.10;102350.00;;;;5049843;28;20199;-79
2021/09/06 11:53:21;;;;;;;7.22;4.65;;;;;30.20;102352.00;;;;5059565;28;20199;-78
2021/09/06 11:55:53;;;;;;;11.27;5.00;;;;;30.20;102354.00;;;;5052761;28;20623;-79
2021/09/06 11:58:25;;;;;;;8.02;4.72;;;;;30.20;102364.00;;;;5059332;28;20545;-78
2021/09/06 12:00:53;;;;;;;8.25;5.05;;;;;30.30;102364.00;;;;5055918;28;20223;-79
2021/09/06 12:03:27;;;;;;;5.47;4.55;;;;;30.30;102360.00;;;;5061362;28;20199;-79
2021/09/06 12:06:03;;;;;;;7.15;4.75;;;;;30.40;102357.00;;;;5071804;28;20202;-79
2021/09/06 12:08:31;;;;;;;8.10;4.57;;;;;30.50;102352.00;;;;5071319;28;20198;-79
2021/09/06 12:11:07;;;;;;;6.20;5.07;;;;;30.40;102354.00;;;;5071372;28;20213;-79